sensor_id;sensor_type;location;lat;lon;timestamp;temperature;humidity
22923;DHT22;11627;51.322;22.816;2024-02-16T00:01:01;3.30;99.90
22923;DHT22;11627;51.322;22.816;2024-02-16T00:03:29;3.10;99.90
22923;DHT22;11627;51.322;22.816;2024-02-16T00:05:56;3.20;99.90
22923;DHT22;11627;51.322;22.816;2024-02-16T00:08:23;3.10;99.90
22923;DHT22;11627;51.322;22.816;2024-02-16T00:10:49;3.00;99.90
22923;DHT22;11627;51.322;22.816;2024-02-16T00:13:15;3.10;99.90
22923;DHT22;11627;51.322;22.816;2024-02-16T00:15:42;2.60;99.90
22923;DHT22;11627;51.322;22.816;2024-02-16T00:18:07;2.90;99.90
22923;DHT22;11627;51.322;22.816;2024-02-16T00:20:33;2.90;99.90
22923;DHT22;11627;51.322;22.816;2024-02-16T00:23:00;2.80;99.90
22923;DHT22;11627;51.322;22.816;2024-02-16T00:25:27;3.10;99.90
22923;DHT22;11627;51.322;22.816;2024-02-16T00:30:20;3.00;99.90
22923;DHT22;11627;51.322;22.816;2024-02-16T00:32:47;2.80;99.90
22923;DHT22;11627;51.322;22.816;2024-02-16T00:35:17;3.00;99.90
22923;DHT22;11627;51.322;22.816;2024-02-16T00:40:11;3.00;99.90
22923;DHT22;11627;51.322;22.816;2024-02-16T00:42:38;3.10;99.90
22923;DHT22;11627;51.322;22.816;2024-02-16T00:45:06;2.80;99.90
22923;DHT22;11627;51.322;22.816;2024-02-16T00:47:33;2.90;99.90
22923;DHT22;11627;51.322;22.816;2024-02-16T00:50:01;2.80;99.90
22923;DHT22;11627;51.322;22.816;2024-02-16T00:52:28;2.70;99.90
22923;DHT22;11627;51.322;22.816;2024-02-16T00:59:49;2.80;99.90
22923;DHT22;11627;51.322;22.816;2024-02-16T01:02:14;2.70;99.90
22923;DHT22;11627;51.322;22.816;2024-02-16T01:04:43;2.50;99.90
22923;DHT22;11627;51.322;22.816;2024-02-16T01:09:35;2.50;99.90
22923;DHT22;11627;51.322;22.816;2024-02-16T01:12:01;2.50;99.90
22923;DHT22;11627;51.322;22.816;2024-02-16T01:14:29;2.60;99.90
22923;DHT22;11627;51.322;22.816;2024-02-16T01:16:55;2.60;99.90
22923;DHT22;11627;51.322;22.816;2024-02-16T01:19:23;2.60;99.90
22923;DHT22;11627;51.322;22.816;2024-02-16T01:21:50;2.70;99.90
22923;DHT22;11627;51.322;22.816;2024-02-16T01:24:19;2.70;99.90
22923;DHT22;11627;51.322;22.816;2024-02-16T01:29:12;2.50;99.90
22923;DHT22;11627;51.322;22.816;2024-02-16T01:31:40;2.50;99.90
22923;DHT22;11627;51.322;22.816;2024-02-16T01:34:05;2.70;99.90
22923;DHT22;11627;51.322;22.816;2024-02-16T01:36:33;2.70;99.90
22923;DHT22;11627;51.322;22.816;2024-02-16T01:38:59;2.70;99.90
22923;DHT22;11627;51.322;22.816;2024-02-16T01:43:55;2.60;99.90
22923;DHT22;11627;51.322;22.816;2024-02-16T01:46:22;2.50;99.90
22923;DHT22;11627;51.322;22.816;2024-02-16T01:48:48;2.50;99.90
22923;DHT22;11627;51.322;22.816;2024-02-16T01:51:17;2.70;99.90
22923;DHT22;11627;51.322;22.816;2024-02-16T01:56:10;2.60;99.90
22923;DHT22;11627;51.322;22.816;2024-02-16T02:01:04;2.60;99.90
22923;DHT22;11627;51.322;22.816;2024-02-16T02:05:57;2.50;99.90
22923;DHT22;11627;51.322;22.816;2024-02-16T02:10:53;2.50;99.90
22923;DHT22;11627;51.322;22.816;2024-02-16T02:13:20;2.40;99.90
22923;DHT22;11627;51.322;22.816;2024-02-16T02:20:41;2.40;99.90
22923;DHT22;11627;51.322;22.816;2024-02-16T02:23:09;2.00;99.90
22923;DHT22;11627;51.322;22.816;2024-02-16T02:25:35;2.30;99.90
22923;DHT22;11627;51.322;22.816;2024-02-16T02:28:03;2.60;99.90
22923;DHT22;11627;51.322;22.816;2024-02-16T02:30:30;2.40;99.90
22923;DHT22;11627;51.322;22.816;2024-02-16T02:35:24;2.20;99.90
22923;DHT22;11627;51.322;22.816;2024-02-16T02:37:49;2.20;99.90
22923;DHT22;11627;51.322;22.816;2024-02-16T02:40:16;2.40;99.90
22923;DHT22;11627;51.322;22.816;2024-02-16T02:42:44;2.20;99.90
22923;DHT22;11627;51.322;22.816;2024-02-16T02:45:11;1.40;99.90
22923;DHT22;11627;51.322;22.816;2024-02-16T02:47:38;1.90;99.90
22923;DHT22;11627;51.322;22.816;2024-02-16T02:50:05;2.00;99.90
22923;DHT22;11627;51.322;22.816;2024-02-16T02:52:32;2.20;99.90
22923;DHT22;11627;51.322;22.816;2024-02-16T02:54:59;2.10;99.90
22923;DHT22;11627;51.322;22.816;2024-02-16T03:02:18;1.90;99.90
22923;DHT22;11627;51.322;22.816;2024-02-16T03:04:46;2.00;99.90
22923;DHT22;11627;51.322;22.816;2024-02-16T03:07:15;2.00;99.90
22923;DHT22;11627;51.322;22.816;2024-02-16T03:09:41;2.00;99.90
22923;DHT22;11627;51.322;22.816;2024-02-16T03:12:09;2.10;99.90
22923;DHT22;11627;51.322;22.816;2024-02-16T03:14:37;1.70;99.90
22923;DHT22;11627;51.322;22.816;2024-02-16T03:19:30;1.50;99.90
22923;DHT22;11627;51.322;22.816;2024-02-16T03:24:25;1.30;99.90
22923;DHT22;11627;51.322;22.816;2024-02-16T03:26:52;1.30;99.90
22923;DHT22;11627;51.322;22.816;2024-02-16T03:31:44;1.50;99.90
22923;DHT22;11627;51.322;22.816;2024-02-16T03:39:02;1.10;99.90
22923;DHT22;11627;51.322;22.816;2024-02-16T03:41:28;1.10;99.90
22923;DHT22;11627;51.322;22.816;2024-02-16T03:43:55;1.10;99.90
22923;DHT22;11627;51.322;22.816;2024-02-16T03:48:49;1.00;99.90
22923;DHT22;11627;51.322;22.816;2024-02-16T03:51:16;1.30;99.90
22923;DHT22;11627;51.322;22.816;2024-02-16T03:53:45;1.00;99.90
22923;DHT22;11627;51.322;22.816;2024-02-16T03:56:19;0.80;99.90
22923;DHT22;11627;51.322;22.816;2024-02-16T03:58:46;1.00;99.90
22923;DHT22;11627;51.322;22.816;2024-02-16T04:01:12;1.00;99.90
22923;DHT22;11627;51.322;22.816;2024-02-16T04:06:05;0.90;99.90
22923;DHT22;11627;51.322;22.816;2024-02-16T04:08:32;0.70;99.90
22923;DHT22;11627;51.322;22.816;2024-02-16T04:10:59;0.10;99.90
22923;DHT22;11627;51.322;22.816;2024-02-16T04:13:25;0.80;99.90
22923;DHT22;11627;51.322;22.816;2024-02-16T04:18:19;0.60;99.90
22923;DHT22;11627;51.322;22.816;2024-02-16T04:20:45;0.90;99.90
22923;DHT22;11627;51.322;22.816;2024-02-16T04:23:12;0.40;99.90
22923;DHT22;11627;51.322;22.816;2024-02-16T04:30:33;0.80;99.90
22923;DHT22;11627;51.322;22.816;2024-02-16T04:32:59;0.50;99.90
22923;DHT22;11627;51.322;22.816;2024-02-16T04:35:26;0.40;99.90
22923;DHT22;11627;51.322;22.816;2024-02-16T04:37:52;0.20;99.90
22923;DHT22;11627;51.322;22.816;2024-02-16T04:42:46;0.60;99.90
22923;DHT22;11627;51.322;22.816;2024-02-16T04:45:12;0.40;99.90
22923;DHT22;11627;51.322;22.816;2024-02-16T04:47:40;0.40;99.90
22923;DHT22;11627;51.322;22.816;2024-02-16T04:50:07;0.70;99.90
22923;DHT22;11627;51.322;22.816;2024-02-16T04:52:38;0.40;99.90
22923;DHT22;11627;51.322;22.816;2024-02-16T04:55:07;0.30;99.90
22923;DHT22;11627;51.322;22.816;2024-02-16T04:57:33;0.30;99.90
22923;DHT22;11627;51.322;22.816;2024-02-16T05:00:00;0.50;99.90
22923;DHT22;11627;51.322;22.816;2024-02-16T05:02:28;0.30;99.90
22923;DHT22;11627;51.322;22.816;2024-02-16T05:04:54;0.60;99.90
22923;DHT22;11627;51.322;22.816;2024-02-16T05:09:46;0.40;99.90
22923;DHT22;11627;51.322;22.816;2024-02-16T05:12:12;0.20;99.90
22923;DHT22;11627;51.322;22.816;2024-02-16T05:14:39;0.20;99.90
22923;DHT22;11627;51.322;22.816;2024-02-16T05:17:06;0.20;99.90
22923;DHT22;11627;51.322;22.816;2024-02-16T05:19:33;0.40;99.90
22923;DHT22;11627;51.322;22.816;2024-02-16T05:29:19;-0.20;99.90
22923;DHT22;11627;51.322;22.816;2024-02-16T05:31:47;0.20;99.90
22923;DHT22;11627;51.322;22.816;2024-02-16T05:36:41;0.20;99.90
22923;DHT22;11627;51.322;22.816;2024-02-16T05:39:08;0.00;99.90
22923;DHT22;11627;51.322;22.816;2024-02-16T05:41:52;0.30;99.90
22923;DHT22;11627;51.322;22.816;2024-02-16T05:44:19;0.10;99.90
22923;DHT22;11627;51.322;22.816;2024-02-16T05:46:46;0.00;99.90
22923;DHT22;11627;51.322;22.816;2024-02-16T05:49:16;-0.10;99.90
22923;DHT22;11627;51.322;22.816;2024-02-16T05:59:23;0.20;99.90
22923;DHT22;11627;51.322;22.816;2024-02-16T06:01:51;0.10;99.90
22923;DHT22;11627;51.322;22.816;2024-02-16T06:04:17;0.20;99.90
22923;DHT22;11627;51.322;22.816;2024-02-16T06:06:46;0.40;99.90
22923;DHT22;11627;51.322;22.816;2024-02-16T06:14:07;0.50;99.90
22923;DHT22;11627;51.322;22.816;2024-02-16T06:16:32;0.50;99.90
22923;DHT22;11627;51.322;22.816;2024-02-16T06:18:59;0.60;99.90
22923;DHT22;11627;51.322;22.816;2024-02-16T06:21:25;0.80;99.90
22923;DHT22;11627;51.322;22.816;2024-02-16T06:23:51;0.50;99.90
22923;DHT22;11627;51.322;22.816;2024-02-16T06:33:37;0.60;99.90
22923;DHT22;11627;51.322;22.816;2024-02-16T06:36:04;0.90;99.90
22923;DHT22;11627;51.322;22.816;2024-02-16T06:41:00;1.00;99.90
22923;DHT22;11627;51.322;22.816;2024-02-16T06:43:29;0.80;99.90
22923;DHT22;11627;51.322;22.816;2024-02-16T06:48:22;1.10;99.90
22923;DHT22;11627;51.322;22.816;2024-02-16T06:50:48;1.20;99.90
22923;DHT22;11627;51.322;22.816;2024-02-16T06:55:45;1.10;99.90
22923;DHT22;11627;51.322;22.816;2024-02-16T06:58:11;1.00;99.90
22923;DHT22;11627;51.322;22.816;2024-02-16T07:00:36;1.30;99.90
22923;DHT22;11627;51.322;22.816;2024-02-16T07:03:03;1.20;99.90
22923;DHT22;11627;51.322;22.816;2024-02-16T07:05:30;1.00;99.90
22923;DHT22;11627;51.322;22.816;2024-02-16T07:07:56;1.50;99.90
22923;DHT22;11627;51.322;22.816;2024-02-16T07:12:48;1.30;99.90
22923;DHT22;11627;51.322;22.816;2024-02-16T07:17:40;1.60;99.90
22923;DHT22;11627;51.322;22.816;2024-02-16T07:20:07;1.60;99.90
22923;DHT22;11627;51.322;22.816;2024-02-16T07:22:33;1.80;99.90
22923;DHT22;11627;51.322;22.816;2024-02-16T07:24:59;1.70;99.90
22923;DHT22;11627;51.322;22.816;2024-02-16T07:27:26;1.60;99.90
22923;DHT22;11627;51.322;22.816;2024-02-16T07:29:52;1.70;99.90
22923;DHT22;11627;51.322;22.816;2024-02-16T07:32:21;1.80;99.90
22923;DHT22;11627;51.322;22.816;2024-02-16T07:34:48;1.90;99.90
22923;DHT22;11627;51.322;22.816;2024-02-16T07:37:14;2.00;99.90
22923;DHT22;11627;51.322;22.816;2024-02-16T07:39:43;2.00;99.90
22923;DHT22;11627;51.322;22.816;2024-02-16T07:42:09;2.30;99.90
22923;DHT22;11627;51.322;22.816;2024-02-16T07:44:38;2.20;99.90
22923;DHT22;11627;51.322;22.816;2024-02-16T07:47:06;2.30;99.90
22923;DHT22;11627;51.322;22.816;2024-02-16T07:52:00;2.30;99.90
22923;DHT22;11627;51.322;22.816;2024-02-16T07:56:53;2.60;99.90
22923;DHT22;11627;51.322;22.816;2024-02-16T08:01:47;2.60;99.90
22923;DHT22;11627;51.322;22.816;2024-02-16T08:04:13;3.00;99.90
22923;DHT22;11627;51.322;22.816;2024-02-16T08:06:42;2.90;99.90
22923;DHT22;11627;51.322;22.816;2024-02-16T08:16:27;3.10;99.90
22923;DHT22;11627;51.322;22.816;2024-02-16T08:18:54;3.20;95.10
22923;DHT22;11627;51.322;22.816;2024-02-16T08:23:48;3.40;70.00
22923;DHT22;11627;51.322;22.816;2024-02-16T08:28:43;3.50;33.00
22923;DHT22;11627;51.322;22.816;2024-02-16T08:31:15;3.90;42.80
22923;DHT22;11627;51.322;22.816;2024-02-16T08:33:45;3.70;1.00
22923;DHT22;11627;51.322;22.816;2024-02-16T08:36:13;3.70;2.50
22923;DHT22;11627;51.322;22.816;2024-02-16T08:48:24;4.20;1.00
22923;DHT22;11627;51.322;22.816;2024-02-16T08:55:43;4.30;1.00
22923;DHT22;11627;51.322;22.816;2024-02-16T09:00:39;4.40;1.00
22923;DHT22;11627;51.322;22.816;2024-02-16T09:03:06;4.30;1.00
22923;DHT22;11627;51.322;22.816;2024-02-16T09:15:20;4.80;1.00
22923;DHT22;11627;51.322;22.816;2024-02-16T09:22:40;5.10;1.00
22923;DHT22;11627;51.322;22.816;2024-02-16T09:25:08;5.20;1.00
22923;DHT22;11627;51.322;22.816;2024-02-16T09:27:34;5.20;99.90
22923;DHT22;11627;51.322;22.816;2024-02-16T09:30:00;5.40;99.90
22923;DHT22;11627;51.322;22.816;2024-02-16T09:47:09;5.60;99.90
22923;DHT22;11627;51.322;22.816;2024-02-16T09:49:39;5.60;99.90
22923;DHT22;11627;51.322;22.816;2024-02-16T09:52:07;6.20;99.90
22923;DHT22;11627;51.322;22.816;2024-02-16T09:54:58;6.10;99.90
22923;DHT22;11627;51.322;22.816;2024-02-16T10:04:42;6.00;99.90
22923;DHT22;11627;51.322;22.816;2024-02-16T10:09:34;6.30;99.90
22923;DHT22;11627;51.322;22.816;2024-02-16T10:12:00;6.50;98.60
22923;DHT22;11627;51.322;22.816;2024-02-16T10:17:05;6.60;99.90
22923;DHT22;11627;51.322;22.816;2024-02-16T10:19:34;6.80;99.90
22923;DHT22;11627;51.322;22.816;2024-02-16T10:22:08;6.60;1.00
22923;DHT22;11627;51.322;22.816;2024-02-16T10:24:37;6.80;1.00
22923;DHT22;11627;51.322;22.816;2024-02-16T10:27:06;6.90;99.90
22923;DHT22;11627;51.322;22.816;2024-02-16T10:29:37;7.20;1.00
22923;DHT22;11627;51.322;22.816;2024-02-16T10:32:05;6.80;1.00
22923;DHT22;11627;51.322;22.816;2024-02-16T10:36:59;6.80;1.00
22923;DHT22;11627;51.322;22.816;2024-02-16T10:39:27;7.20;24.30
22923;DHT22;11627;51.322;22.816;2024-02-16T10:41:57;7.00;1.00
22923;DHT22;11627;51.322;22.816;2024-02-16T10:44:29;7.10;99.90
22923;DHT22;11627;51.322;22.816;2024-02-16T10:46:55;7.20;99.90
22923;DHT22;11627;51.322;22.816;2024-02-16T10:49:25;7.40;1.00
22923;DHT22;11627;51.322;22.816;2024-02-16T10:51:55;7.40;99.90
22923;DHT22;11627;51.322;22.816;2024-02-16T10:54:31;7.70;99.90
22923;DHT22;11627;51.322;22.816;2024-02-16T10:56:59;7.50;99.90
22923;DHT22;11627;51.322;22.816;2024-02-16T10:59:26;7.80;99.90
22923;DHT22;11627;51.322;22.816;2024-02-16T11:02:01;7.70;99.90
22923;DHT22;11627;51.322;22.816;2024-02-16T11:04:36;7.90;99.90
22923;DHT22;11627;51.322;22.816;2024-02-16T11:07:16;7.90;99.90
22923;DHT22;11627;51.322;22.816;2024-02-16T11:09:44;7.90;99.90
22923;DHT22;11627;51.322;22.816;2024-02-16T11:12:16;7.90;1.00
22923;DHT22;11627;51.322;22.816;2024-02-16T11:14:47;7.90;60.00
22923;DHT22;11627;51.322;22.816;2024-02-16T11:17:22;8.10;99.90
22923;DHT22;11627;51.322;22.816;2024-02-16T11:19:53;8.00;99.90
22923;DHT22;11627;51.322;22.816;2024-02-16T11:22:20;8.10;99.90
22923;DHT22;11627;51.322;22.816;2024-02-16T11:24:51;8.20;99.90
22923;DHT22;11627;51.322;22.816;2024-02-16T11:27:19;8.40;1.00
22923;DHT22;11627;51.322;22.816;2024-02-16T11:29:49;8.20;99.90
22923;DHT22;11627;51.322;22.816;2024-02-16T11:32:15;7.90;99.90
22923;DHT22;11627;51.322;22.816;2024-02-16T11:34:42;8.50;99.90
22923;DHT22;11627;51.322;22.816;2024-02-16T11:37:08;8.60;99.90
22923;DHT22;11627;51.322;22.816;2024-02-16T11:39:35;8.60;1.00
22923;DHT22;11627;51.322;22.816;2024-02-16T11:44:36;8.50;99.90
22923;DHT22;11627;51.322;22.816;2024-02-16T11:47:06;9.10;99.90
22923;DHT22;11627;51.322;22.816;2024-02-16T11:52:04;8.80;99.90
22923;DHT22;11627;51.322;22.816;2024-02-16T11:54:30;8.80;99.90
22923;DHT22;11627;51.322;22.816;2024-02-16T11:56:58;8.90;99.90
22923;DHT22;11627;51.322;22.816;2024-02-16T11:59:24;8.80;99.90
22923;DHT22;11627;51.322;22.816;2024-02-16T12:01:53;9.10;99.90
22923;DHT22;11627;51.322;22.816;2024-02-16T12:04:25;9.20;99.90
22923;DHT22;11627;51.322;22.816;2024-02-16T12:06:56;9.10;72.70
22923;DHT22;11627;51.322;22.816;2024-02-16T12:09:24;9.30;99.90
22923;DHT22;11627;51.322;22.816;2024-02-16T12:11:55;9.40;97.00
22923;DHT22;11627;51.322;22.816;2024-02-16T12:14:22;9.30;1.00
22923;DHT22;11627;51.322;22.816;2024-02-16T12:16:49;9.00;1.00
22923;DHT22;11627;51.322;22.816;2024-02-16T12:19:19;9.20;99.90
22923;DHT22;11627;51.322;22.816;2024-02-16T12:21:51;9.20;1.00
22923;DHT22;11627;51.322;22.816;2024-02-16T12:24:19;9.60;99.90
22923;DHT22;11627;51.322;22.816;2024-02-16T12:26:46;9.50;99.90
22923;DHT22;11627;51.322;22.816;2024-02-16T12:29:13;9.80;99.90
22923;DHT22;11627;51.322;22.816;2024-02-16T12:31:43;9.40;99.90
22923;DHT22;11627;51.322;22.816;2024-02-16T12:34:11;9.50;99.90
22923;DHT22;11627;51.322;22.816;2024-02-16T12:36:41;9.20;99.90
22923;DHT22;11627;51.322;22.816;2024-02-16T12:41:40;9.70;99.90
22923;DHT22;11627;51.322;22.816;2024-02-16T12:44:09;9.40;97.10
22923;DHT22;11627;51.322;22.816;2024-02-16T12:46:35;9.60;99.90
22923;DHT22;11627;51.322;22.816;2024-02-16T12:49:01;9.80;99.90
22923;DHT22;11627;51.322;22.816;2024-02-16T12:56:22;9.80;1.00
22923;DHT22;11627;51.322;22.816;2024-02-16T12:58:49;9.50;1.00
22923;DHT22;11627;51.322;22.816;2024-02-16T13:01:18;10.10;1.00
22923;DHT22;11627;51.322;22.816;2024-02-16T13:03:44;9.70;99.90
22923;DHT22;11627;51.322;22.816;2024-02-16T13:06:10;10.10;58.90
22923;DHT22;11627;51.322;22.816;2024-02-16T13:08:38;10.00;1.00
22923;DHT22;11627;51.322;22.816;2024-02-16T13:11:05;9.90;99.90
22923;DHT22;11627;51.322;22.816;2024-02-16T13:15:57;10.20;1.00
22923;DHT22;11627;51.322;22.816;2024-02-16T13:18:26;10.40;99.90
22923;DHT22;11627;51.322;22.816;2024-02-16T13:20:51;10.40;1.00
22923;DHT22;11627;51.322;22.816;2024-02-16T13:25:43;10.10;99.90
22923;DHT22;11627;51.322;22.816;2024-02-16T13:33:05;10.60;1.00
22923;DHT22;11627;51.322;22.816;2024-02-16T13:38:03;10.60;99.90
22923;DHT22;11627;51.322;22.816;2024-02-16T13:40:32;10.60;1.00
22923;DHT22;11627;51.322;22.816;2024-02-16T13:43:02;10.70;99.90
22923;DHT22;11627;51.322;22.816;2024-02-16T13:45:48;11.00;1.00
22923;DHT22;11627;51.322;22.816;2024-02-16T13:48:21;10.60;1.00
22923;DHT22;11627;51.322;22.816;2024-02-16T13:50:53;10.50;99.90
22923;DHT22;11627;51.322;22.816;2024-02-16T13:53:21;11.30;1.00
22923;DHT22;11627;51.322;22.816;2024-02-16T13:55:48;12.80;99.90
22923;DHT22;11627;51.322;22.816;2024-02-16T13:58:14;13.30;99.90
22923;DHT22;11627;51.322;22.816;2024-02-16T14:00:41;13.40;99.90
22923;DHT22;11627;51.322;22.816;2024-02-16T14:03:09;13.30;15.50
22923;DHT22;11627;51.322;22.816;2024-02-16T14:05:38;13.20;99.90
22923;DHT22;11627;51.322;22.816;2024-02-16T14:08:06;13.30;99.90
22923;DHT22;11627;51.322;22.816;2024-02-16T14:10:35;13.40;1.00
22923;DHT22;11627;51.322;22.816;2024-02-16T14:13:03;13.20;1.00
22923;DHT22;11627;51.322;22.816;2024-02-16T14:15:30;13.20;5.90
22923;DHT22;11627;51.322;22.816;2024-02-16T14:17:58;13.00;1.00
22923;DHT22;11627;51.322;22.816;2024-02-16T14:20:25;12.80;1.00
22923;DHT22;11627;51.322;22.816;2024-02-16T14:22:51;12.60;99.90
22923;DHT22;11627;51.322;22.816;2024-02-16T14:25:18;12.40;99.90
22923;DHT22;11627;51.322;22.816;2024-02-16T14:27:46;11.80;99.90
22923;DHT22;11627;51.322;22.816;2024-02-16T14:30:14;11.00;99.90
22923;DHT22;11627;51.322;22.816;2024-02-16T14:32:40;10.20;1.00
22923;DHT22;11627;51.322;22.816;2024-02-16T14:35:08;9.90;99.90
22923;DHT22;11627;51.322;22.816;2024-02-16T14:37:36;9.50;1.00
22923;DHT22;11627;51.322;22.816;2024-02-16T14:40:04;9.70;1.00
22923;DHT22;11627;51.322;22.816;2024-02-16T14:42:36;9.70;1.00
22923;DHT22;11627;51.322;22.816;2024-02-16T14:45:05;9.70;99.90
22923;DHT22;11627;51.322;22.816;2024-02-16T14:47:36;9.60;99.90
22923;DHT22;11627;51.322;22.816;2024-02-16T14:50:04;9.10;99.90
22923;DHT22;11627;51.322;22.816;2024-02-16T14:52:35;8.70;99.90
22923;DHT22;11627;51.322;22.816;2024-02-16T14:55:02;8.40;99.90
22923;DHT22;11627;51.322;22.816;2024-02-16T14:57:29;8.20;1.00
22923;DHT22;11627;51.322;22.816;2024-02-16T14:59:55;8.30;1.00
22923;DHT22;11627;51.322;22.816;2024-02-16T15:02:23;8.20;99.90
22923;DHT22;11627;51.322;22.816;2024-02-16T15:04:49;8.20;99.90
22923;DHT22;11627;51.322;22.816;2024-02-16T15:07:19;8.00;99.90
22923;DHT22;11627;51.322;22.816;2024-02-16T15:09:45;7.90;1.00
22923;DHT22;11627;51.322;22.816;2024-02-16T15:12:10;7.60;1.00
22923;DHT22;11627;51.322;22.816;2024-02-16T15:14:36;7.40;99.90
22923;DHT22;11627;51.322;22.816;2024-02-16T15:17:03;7.30;99.90
22923;DHT22;11627;51.322;22.816;2024-02-16T15:19:31;7.20;1.00
22923;DHT22;11627;51.322;22.816;2024-02-16T15:21:58;7.20;1.00
22923;DHT22;11627;51.322;22.816;2024-02-16T15:24:25;7.10;1.00
22923;DHT22;11627;51.322;22.816;2024-02-16T15:26:52;6.80;1.00
22923;DHT22;11627;51.322;22.816;2024-02-16T15:29:18;6.70;99.90
22923;DHT22;11627;51.322;22.816;2024-02-16T15:31:44;6.50;99.90
22923;DHT22;11627;51.322;22.816;2024-02-16T15:34:11;6.40;99.90
22923;DHT22;11627;51.322;22.816;2024-02-16T15:36:39;6.30;99.90
22923;DHT22;11627;51.322;22.816;2024-02-16T15:39:07;6.10;99.90
22923;DHT22;11627;51.322;22.816;2024-02-16T15:41:34;5.90;1.00
22923;DHT22;11627;51.322;22.816;2024-02-16T15:44:01;5.70;1.00
22923;DHT22;11627;51.322;22.816;2024-02-16T15:46:29;5.60;1.00
22923;DHT22;11627;51.322;22.816;2024-02-16T15:48:57;5.40;1.00
22923;DHT22;11627;51.322;22.816;2024-02-16T15:51:24;5.30;1.00
22923;DHT22;11627;51.322;22.816;2024-02-16T15:53:51;5.10;3.20
22923;DHT22;11627;51.322;22.816;2024-02-16T15:56:17;4.90;15.30
22923;DHT22;11627;51.322;22.816;2024-02-16T15:58:43;4.70;27.50
22923;DHT22;11627;51.322;22.816;2024-02-16T16:03:36;4.60;33.90
22923;DHT22;11627;51.322;22.816;2024-02-16T16:06:02;4.50;37.80
22923;DHT22;11627;51.322;22.816;2024-02-16T16:08:29;4.40;48.10
22923;DHT22;11627;51.322;22.816;2024-02-16T16:10:55;4.30;57.50
22923;DHT22;11627;51.322;22.816;2024-02-16T16:13:23;4.30;61.60
22923;DHT22;11627;51.322;22.816;2024-02-16T16:15:48;4.10;59.60
22923;DHT22;11627;51.322;22.816;2024-02-16T16:18:16;4.10;71.80
22923;DHT22;11627;51.322;22.816;2024-02-16T16:20:42;4.00;75.90
22923;DHT22;11627;51.322;22.816;2024-02-16T16:23:09;3.90;87.60
22923;DHT22;11627;51.322;22.816;2024-02-16T16:25:36;3.90;91.90
22923;DHT22;11627;51.322;22.816;2024-02-16T16:28:04;3.90;92.30
22923;DHT22;11627;51.322;22.816;2024-02-16T16:30:32;3.80;90.00
22923;DHT22;11627;51.322;22.816;2024-02-16T16:32:59;3.80;91.60
22923;DHT22;11627;51.322;22.816;2024-02-16T16:35:25;3.70;94.70
22923;DHT22;11627;51.322;22.816;2024-02-16T16:37:52;3.60;97.50
22923;DHT22;11627;51.322;22.816;2024-02-16T16:40:18;3.70;91.70
22923;DHT22;11627;51.322;22.816;2024-02-16T16:42:45;3.50;92.50
22923;DHT22;11627;51.322;22.816;2024-02-16T16:45:12;3.40;97.90
22923;DHT22;11627;51.322;22.816;2024-02-16T16:47:39;3.30;99.90
22923;DHT22;11627;51.322;22.816;2024-02-16T16:50:05;3.30;99.90
22923;DHT22;11627;51.322;22.816;2024-02-16T16:52:35;3.20;99.90
22923;DHT22;11627;51.322;22.816;2024-02-16T16:55:00;3.20;99.90
22923;DHT22;11627;51.322;22.816;2024-02-16T16:57:26;3.10;99.90
22923;DHT22;11627;51.322;22.816;2024-02-16T16:59:53;2.90;99.90
22923;DHT22;11627;51.322;22.816;2024-02-16T17:02:21;2.90;99.90
22923;DHT22;11627;51.322;22.816;2024-02-16T17:04:48;2.70;99.90
22923;DHT22;11627;51.322;22.816;2024-02-16T17:07:16;2.60;99.90
22923;DHT22;11627;51.322;22.816;2024-02-16T17:09:45;2.60;99.90
22923;DHT22;11627;51.322;22.816;2024-02-16T17:12:12;2.60;99.90
22923;DHT22;11627;51.322;22.816;2024-02-16T17:14:40;2.60;99.90
22923;DHT22;11627;51.322;22.816;2024-02-16T17:17:06;2.50;99.90
22923;DHT22;11627;51.322;22.816;2024-02-16T17:19:33;2.30;99.90
22923;DHT22;11627;51.322;22.816;2024-02-16T17:21:59;2.30;99.90
22923;DHT22;11627;51.322;22.816;2024-02-16T17:24:26;2.40;99.90
22923;DHT22;11627;51.322;22.816;2024-02-16T17:26:57;2.30;99.90
22923;DHT22;11627;51.322;22.816;2024-02-16T17:29:24;2.30;99.90
22923;DHT22;11627;51.322;22.816;2024-02-16T17:31:53;2.20;99.90
22923;DHT22;11627;51.322;22.816;2024-02-16T17:36:45;2.20;99.90
22923;DHT22;11627;51.322;22.816;2024-02-16T17:39:11;2.20;99.90
22923;DHT22;11627;51.322;22.816;2024-02-16T17:41:38;2.20;99.90
22923;DHT22;11627;51.322;22.816;2024-02-16T17:44:05;2.10;99.90
22923;DHT22;11627;51.322;22.816;2024-02-16T17:46:33;2.10;99.90
22923;DHT22;11627;51.322;22.816;2024-02-16T17:48:59;2.10;99.90
22923;DHT22;11627;51.322;22.816;2024-02-16T17:51:25;2.20;99.90
22923;DHT22;11627;51.322;22.816;2024-02-16T17:53:51;2.20;99.90
22923;DHT22;11627;51.322;22.816;2024-02-16T17:56:18;2.10;99.90
22923;DHT22;11627;51.322;22.816;2024-02-16T17:58:45;2.10;99.90
22923;DHT22;11627;51.322;22.816;2024-02-16T18:01:13;2.00;99.90
22923;DHT22;11627;51.322;22.816;2024-02-16T18:03:39;2.00;99.90
22923;DHT22;11627;51.322;22.816;2024-02-16T18:06:06;2.00;99.90
22923;DHT22;11627;51.322;22.816;2024-02-16T18:08:34;2.00;99.90
22923;DHT22;11627;51.322;22.816;2024-02-16T18:11:00;1.90;99.90
22923;DHT22;11627;51.322;22.816;2024-02-16T18:13:25;1.80;99.90
22923;DHT22;11627;51.322;22.816;2024-02-16T18:15:53;1.80;99.90
22923;DHT22;11627;51.322;22.816;2024-02-16T18:18:24;1.80;99.90
22923;DHT22;11627;51.322;22.816;2024-02-16T18:20:52;1.80;99.90
22923;DHT22;11627;51.322;22.816;2024-02-16T18:23:19;1.80;99.90
22923;DHT22;11627;51.322;22.816;2024-02-16T18:25:45;1.70;99.90
22923;DHT22;11627;51.322;22.816;2024-02-16T18:28:11;1.70;99.90
22923;DHT22;11627;51.322;22.816;2024-02-16T18:30:37;1.70;99.90
22923;DHT22;11627;51.322;22.816;2024-02-16T18:33:05;1.70;99.90
22923;DHT22;11627;51.322;22.816;2024-02-16T18:35:31;1.60;99.90
22923;DHT22;11627;51.322;22.816;2024-02-16T18:37:57;1.60;99.90
22923;DHT22;11627;51.322;22.816;2024-02-16T18:40:24;1.60;99.90
22923;DHT22;11627;51.322;22.816;2024-02-16T18:42:54;1.60;99.90
22923;DHT22;11627;51.322;22.816;2024-02-16T18:45:21;1.60;99.90
22923;DHT22;11627;51.322;22.816;2024-02-16T18:47:50;1.60;99.90
22923;DHT22;11627;51.322;22.816;2024-02-16T18:50:15;1.50;99.90
22923;DHT22;11627;51.322;22.816;2024-02-16T18:52:43;1.60;99.90
22923;DHT22;11627;51.322;22.816;2024-02-16T18:55:10;1.40;99.90
22923;DHT22;11627;51.322;22.816;2024-02-16T18:57:36;1.50;99.90
22923;DHT22;11627;51.322;22.816;2024-02-16T19:00:07;1.50;99.90
22923;DHT22;11627;51.322;22.816;2024-02-16T19:02:35;1.50;99.90
22923;DHT22;11627;51.322;22.816;2024-02-16T19:05:03;1.50;99.90
22923;DHT22;11627;51.322;22.816;2024-02-16T19:07:31;1.50;99.90
22923;DHT22;11627;51.322;22.816;2024-02-16T19:09:58;1.50;99.90
22923;DHT22;11627;51.322;22.816;2024-02-16T19:12:25;1.50;99.90
22923;DHT22;11627;51.322;22.816;2024-02-16T19:14:54;1.50;99.90